sensor_id;sensor_type;location;lat;lon;timestamp;P1;durP1;ratioP1;P2;durP2;ratioP2
23228;SDS011;11783;50.350;6.576;2022-07-10T00:00:11;6.13;;;1.50;;
23228;SDS011;11783;50.350;6.576;2022-07-10T00:02:38;6.70;;;1.50;;
23228;SDS011;11783;50.350;6.576;2022-07-10T00:05:05;5.47;;;1.75;;
23228;SDS011;11783;50.350;6.576;2022-07-10T00:07:31;5.03;;;1.33;;
23228;SDS011;11783;50.350;6.576;2022-07-10T00:09:56;3.95;;;1.52;;
23228;SDS011;11783;50.350;6.576;2022-07-10T00:12:21;4.22;;;1.30;;
23228;SDS011;11783;50.350;6.576;2022-07-10T00:14:47;7.88;;;1.60;;
23228;SDS011;11783;50.350;6.576;2022-07-10T00:17:12;6.07;;;1.52;;
23228;SDS011;11783;50.350;6.576;2022-07-10T00:19:37;4.50;;;1.67;;
23228;SDS011;11783;50.350;6.576;2022-07-10T00:22:03;5.75;;;1.80;;
23228;SDS011;11783;50.350;6.576;2022-07-10T00:24:28;4.32;;;1.48;;
23228;SDS011;11783;50.350;6.576;2022-07-10T00:26:54;5.35;;;1.40;;
23228;SDS011;11783;50.350;6.576;2022-07-10T00:29:19;5.60;;;1.50;;
23228;SDS011;11783;50.350;6.576;2022-07-10T00:34:33;6.38;;;1.55;;
23228;SDS011;11783;50.350;6.576;2022-07-10T00:36:58;5.00;;;1.30;;
23228;SDS011;11783;50.350;6.576;2022-07-10T00:39:24;6.03;;;1.70;;
23228;SDS011;11783;50.350;6.576;2022-07-10T00:41:49;6.57;;;1.90;;
23228;SDS011;11783;50.350;6.576;2022-07-10T00:44:15;6.65;;;1.88;;
23228;SDS011;11783;50.350;6.576;2022-07-10T00:46:40;4.32;;;1.55;;
23228;SDS011;11783;50.350;6.576;2022-07-10T00:49:05;8.65;;;1.60;;
23228;SDS011;11783;50.350;6.576;2022-07-10T00:51:31;4.20;;;1.60;;
23228;SDS011;11783;50.350;6.576;2022-07-10T00:53:58;4.38;;;1.40;;
23228;SDS011;11783;50.350;6.576;2022-07-10T00:56:25;9.90;;;1.70;;
23228;SDS011;11783;50.350;6.576;2022-07-10T00:58:53;4.45;;;1.50;;
23228;SDS011;11783;50.350;6.576;2022-07-10T01:01:18;5.05;;;1.50;;
23228;SDS011;11783;50.350;6.576;2022-07-10T01:03:44;4.70;;;1.40;;
23228;SDS011;11783;50.350;6.576;2022-07-10T01:06:11;4.63;;;1.25;;
23228;SDS011;11783;50.350;6.576;2022-07-10T01:08:40;4.15;;;1.60;;
23228;SDS011;11783;50.350;6.576;2022-07-10T01:11:07;6.05;;;1.60;;
23228;SDS011;11783;50.350;6.576;2022-07-10T01:13:33;5.10;;;1.40;;
23228;SDS011;11783;50.350;6.576;2022-07-10T01:15:58;6.15;;;1.67;;
23228;SDS011;11783;50.350;6.576;2022-07-10T01:18:24;5.75;;;1.38;;
23228;SDS011;11783;50.350;6.576;2022-07-10T01:20:51;8.02;;;1.20;;
23228;SDS011;11783;50.350;6.576;2022-07-10T01:23:20;5.55;;;1.40;;
23228;SDS011;11783;50.350;6.576;2022-07-10T01:25:46;4.95;;;1.20;;
23228;SDS011;11783;50.350;6.576;2022-07-10T01:28:12;6.35;;;1.52;;
23228;SDS011;11783;50.350;6.576;2022-07-10T01:30:37;6.40;;;1.60;;
23228;SDS011;11783;50.350;6.576;2022-07-10T01:33:02;4.05;;;1.33;;
23228;SDS011;11783;50.350;6.576;2022-07-10T01:35:28;8.23;;;1.40;;
23228;SDS011;11783;50.350;6.576;2022-07-10T01:37:53;6.93;;;1.33;;
23228;SDS011;11783;50.350;6.576;2022-07-10T01:40:18;5.63;;;1.48;;
23228;SDS011;11783;50.350;6.576;2022-07-10T01:42:43;5.40;;;1.40;;
23228;SDS011;11783;50.350;6.576;2022-07-10T01:45:10;7.07;;;1.50;;
23228;SDS011;11783;50.350;6.576;2022-07-10T01:47:35;6.78;;;1.25;;
23228;SDS011;11783;50.350;6.576;2022-07-10T01:50:01;7.65;;;1.40;;
23228;SDS011;11783;50.350;6.576;2022-07-10T01:52:27;5.72;;;1.30;;
23228;SDS011;11783;50.350;6.576;2022-07-10T01:54:53;4.68;;;1.20;;
23228;SDS011;11783;50.350;6.576;2022-07-10T01:57:18;5.88;;;1.58;;
23228;SDS011;11783;50.350;6.576;2022-07-10T01:59:43;5.82;;;1.45;;
23228;SDS011;11783;50.350;6.576;2022-07-10T02:02:09;4.90;;;1.40;;
23228;SDS011;11783;50.350;6.576;2022-07-10T02:04:34;4.50;;;1.27;;
23228;SDS011;11783;50.350;6.576;2022-07-10T02:07:05;5.80;;;1.33;;
23228;SDS011;11783;50.350;6.576;2022-07-10T02:09:31;6.35;;;1.30;;
23228;SDS011;11783;50.350;6.576;2022-07-10T02:11:56;4.97;;;1.35;;
23228;SDS011;11783;50.350;6.576;2022-07-10T02:14:22;4.65;;;1.20;;
23228;SDS011;11783;50.350;6.576;2022-07-10T02:16:47;5.35;;;1.45;;
23228;SDS011;11783;50.350;6.576;2022-07-10T02:19:12;5.22;;;1.70;;
23228;SDS011;11783;50.350;6.576;2022-07-10T02:21:37;5.00;;;1.73;;
23228;SDS011;11783;50.350;6.576;2022-07-10T02:24:03;7.22;;;1.35;;
23228;SDS011;11783;50.350;6.576;2022-07-10T02:26:28;7.75;;;1.77;;
23228;SDS011;11783;50.350;6.576;2022-07-10T02:28:53;5.15;;;1.23;;
23228;SDS011;11783;50.350;6.576;2022-07-10T02:31:19;7.47;;;1.52;;
23228;SDS011;11783;50.350;6.576;2022-07-10T02:33:44;5.38;;;1.38;;
23228;SDS011;11783;50.350;6.576;2022-07-10T02:36:09;5.57;;;1.67;;
23228;SDS011;11783;50.350;6.576;2022-07-10T02:38:35;5.72;;;1.40;;
23228;SDS011;11783;50.350;6.576;2022-07-10T02:41:00;7.80;;;1.38;;
23228;SDS011;11783;50.350;6.576;2022-07-10T02:43:25;7.57;;;1.58;;
23228;SDS011;11783;50.350;6.576;2022-07-10T02:45:51;5.30;;;1.38;;
23228;SDS011;11783;50.350;6.576;2022-07-10T02:48:16;9.70;;;1.60;;
23228;SDS011;11783;50.350;6.576;2022-07-10T02:50:43;6.22;;;1.50;;
23228;SDS011;11783;50.350;6.576;2022-07-10T02:53:08;7.03;;;1.45;;
23228;SDS011;11783;50.350;6.576;2022-07-10T02:55:34;4.55;;;1.20;;
23228;SDS011;11783;50.350;6.576;2022-07-10T02:57:59;4.50;;;1.40;;
23228;SDS011;11783;50.350;6.576;2022-07-10T03:00:25;7.07;;;1.30;;
23228;SDS011;11783;50.350;6.576;2022-07-10T03:02:51;6.40;;;1.30;;
23228;SDS011;11783;50.350;6.576;2022-07-10T03:05:17;5.45;;;1.40;;
23228;SDS011;11783;50.350;6.576;2022-07-10T03:07:42;4.00;;;1.08;;
23228;SDS011;11783;50.350;6.576;2022-07-10T03:10:08;4.35;;;1.20;;
23228;SDS011;11783;50.350;6.576;2022-07-10T03:12:34;4.40;;;1.13;;
23228;SDS011;11783;50.350;6.576;2022-07-10T03:14:59;7.25;;;1.40;;
23228;SDS011;11783;50.350;6.576;2022-07-10T03:17:24;4.88;;;1.30;;
23228;SDS011;11783;50.350;6.576;2022-07-10T03:19:50;6.85;;;1.50;;
23228;SDS011;11783;50.350;6.576;2022-07-10T03:22:15;6.60;;;1.42;;
23228;SDS011;11783;50.350;6.576;2022-07-10T03:24:40;7.88;;;1.42;;
23228;SDS011;11783;50.350;6.576;2022-07-10T03:27:08;3.45;;;1.10;;
23228;SDS011;11783;50.350;6.576;2022-07-10T03:29:33;3.17;;;1.20;;
23228;SDS011;11783;50.350;6.576;2022-07-10T03:31:59;4.97;;;1.48;;
23228;SDS011;11783;50.350;6.576;2022-07-10T03:34:24;4.40;;;1.20;;
23228;SDS011;11783;50.350;6.576;2022-07-10T03:36:49;6.22;;;1.67;;
23228;SDS011;11783;50.350;6.576;2022-07-10T03:39:16;6.80;;;1.50;;
23228;SDS011;11783;50.350;6.576;2022-07-10T03:41:41;5.80;;;1.30;;
23228;SDS011;11783;50.350;6.576;2022-07-10T03:44:07;7.57;;;1.60;;
23228;SDS011;11783;50.350;6.576;2022-07-10T03:46:32;5.40;;;1.42;;
23228;SDS011;11783;50.350;6.576;2022-07-10T03:48:57;5.97;;;1.40;;
23228;SDS011;11783;50.350;6.576;2022-07-10T03:51:22;5.70;;;1.58;;
23228;SDS011;11783;50.350;6.576;2022-07-10T03:53:48;7.70;;;1.67;;
23228;SDS011;11783;50.350;6.576;2022-07-10T03:56:13;5.13;;;1.70;;
23228;SDS011;11783;50.350;6.576;2022-07-10T03:58:58;5.10;;;1.35;;
23228;SDS011;11783;50.350;6.576;2022-07-10T04:01:24;5.47;;;1.27;;
23228;SDS011;11783;50.350;6.576;2022-07-10T04:03:49;5.05;;;1.52;;
23228;SDS011;11783;50.350;6.576;2022-07-10T04:06:14;6.47;;;1.38;;
23228;SDS011;11783;50.350;6.576;2022-07-10T04:08:39;5.32;;;1.60;;
23228;SDS011;11783;50.350;6.576;2022-07-10T04:11:05;5.75;;;1.38;;
23228;SDS011;11783;50.350;6.576;2022-07-10T04:13:30;5.68;;;1.83;;
23228;SDS011;11783;50.350;6.576;2022-07-10T04:15:55;4.95;;;1.30;;
23228;SDS011;11783;50.350;6.576;2022-07-10T04:18:21;7.47;;;1.45;;
23228;SDS011;11783;50.350;6.576;2022-07-10T04:20:46;7.32;;;1.50;;
23228;SDS011;11783;50.350;6.576;2022-07-10T04:23:11;3.70;;;1.30;;
23228;SDS011;11783;50.350;6.576;2022-07-10T04:25:37;6.50;;;1.80;;
23228;SDS011;11783;50.350;6.576;2022-07-10T04:28:02;5.63;;;1.48;;
23228;SDS011;11783;50.350;6.576;2022-07-10T04:30:27;4.32;;;1.58;;
23228;SDS011;11783;50.350;6.576;2022-07-10T04:32:53;6.25;;;1.50;;
23228;SDS011;11783;50.350;6.576;2022-07-10T04:35:18;7.13;;;1.67;;
23228;SDS011;11783;50.350;6.576;2022-07-10T04:37:43;6.00;;;1.50;;
23228;SDS011;11783;50.350;6.576;2022-07-10T04:40:09;4.82;;;1.60;;
23228;SDS011;11783;50.350;6.576;2022-07-10T04:42:35;6.18;;;1.42;;
23228;SDS011;11783;50.350;6.576;2022-07-10T04:45:01;6.03;;;1.52;;
23228;SDS011;11783;50.350;6.576;2022-07-10T04:47:27;5.53;;;1.35;;
23228;SDS011;11783;50.350;6.576;2022-07-10T04:49:52;5.47;;;1.70;;
23228;SDS011;11783;50.350;6.576;2022-07-10T04:52:17;6.43;;;1.48;;
23228;SDS011;11783;50.350;6.576;2022-07-10T04:54:43;6.30;;;1.38;;
23228;SDS011;11783;50.350;6.576;2022-07-10T04:57:08;3.85;;;1.40;;
23228;SDS011;11783;50.350;6.576;2022-07-10T04:59:33;5.63;;;1.58;;
23228;SDS011;11783;50.350;6.576;2022-07-10T05:01:59;4.82;;;1.40;;
23228;SDS011;11783;50.350;6.576;2022-07-10T05:04:24;4.35;;;1.48;;
23228;SDS011;11783;50.350;6.576;2022-07-10T05:06:49;5.28;;;1.63;;
23228;SDS011;11783;50.350;6.576;2022-07-10T05:09:14;6.18;;;1.25;;
23228;SDS011;11783;50.350;6.576;2022-07-10T05:11:40;3.85;;;1.35;;
23228;SDS011;11783;50.350;6.576;2022-07-10T05:14:05;5.05;;;1.40;;
23228;SDS011;11783;50.350;6.576;2022-07-10T05:16:31;6.60;;;1.52;;
23228;SDS011;11783;50.350;6.576;2022-07-10T05:18:56;4.90;;;1.52;;
23228;SDS011;11783;50.350;6.576;2022-07-10T05:21:22;5.15;;;1.30;;
23228;SDS011;11783;50.350;6.576;2022-07-10T05:23:47;5.57;;;1.30;;
23228;SDS011;11783;50.350;6.576;2022-07-10T05:26:12;5.63;;;1.52;;
23228;SDS011;11783;50.350;6.576;2022-07-10T05:28:38;4.85;;;1.40;;
23228;SDS011;11783;50.350;6.576;2022-07-10T05:31:03;4.65;;;1.45;;
23228;SDS011;11783;50.350;6.576;2022-07-10T05:33:29;5.03;;;1.30;;
23228;SDS011;11783;50.350;6.576;2022-07-10T05:35:54;4.15;;;1.17;;
23228;SDS011;11783;50.350;6.576;2022-07-10T05:38:20;5.32;;;1.30;;
23228;SDS011;11783;50.350;6.576;2022-07-10T05:40:45;7.07;;;1.58;;
23228;SDS011;11783;50.350;6.576;2022-07-10T05:43:11;5.60;;;1.30;;
23228;SDS011;11783;50.350;6.576;2022-07-10T05:45:36;5.80;;;1.67;;
23228;SDS011;11783;50.350;6.576;2022-07-10T05:48:02;4.25;;;1.33;;
23228;SDS011;11783;50.350;6.576;2022-07-10T05:50:27;5.40;;;1.33;;
23228;SDS011;11783;50.350;6.576;2022-07-10T05:52:53;5.63;;;1.50;;
23228;SDS011;11783;50.350;6.576;2022-07-10T05:55:18;6.38;;;1.27;;
23228;SDS011;11783;50.350;6.576;2022-07-10T05:57:43;6.45;;;1.40;;
23228;SDS011;11783;50.350;6.576;2022-07-10T06:00:09;7.78;;;1.73;;
23228;SDS011;11783;50.350;6.576;2022-07-10T06:02:35;5.10;;;1.10;;
23228;SDS011;11783;50.350;6.576;2022-07-10T06:05:00;5.50;;;1.10;;
23228;SDS011;11783;50.350;6.576;2022-07-10T06:07:26;6.30;;;1.30;;
23228;SDS011;11783;50.350;6.576;2022-07-10T06:09:52;5.05;;;1.45;;
23228;SDS011;11783;50.350;6.576;2022-07-10T06:12:17;5.68;;;1.23;;
23228;SDS011;11783;50.350;6.576;2022-07-10T06:14:43;7.65;;;1.13;;
23228;SDS011;11783;50.350;6.576;2022-07-10T06:17:08;6.32;;;1.40;;
23228;SDS011;11783;50.350;6.576;2022-07-10T06:19:33;5.80;;;1.08;;
23228;SDS011;11783;50.350;6.576;2022-07-10T06:21:59;7.20;;;1.15;;
23228;SDS011;11783;50.350;6.576;2022-07-10T06:24:43;9.32;;;1.30;;
23228;SDS011;11783;50.350;6.576;2022-07-10T06:27:08;7.07;;;1.17;;
23228;SDS011;11783;50.350;6.576;2022-07-10T06:29:34;6.05;;;1.30;;
23228;SDS011;11783;50.350;6.576;2022-07-10T06:31:59;6.28;;;1.23;;
23228;SDS011;11783;50.350;6.576;2022-07-10T06:34:24;3.20;;;0.93;;
23228;SDS011;11783;50.350;6.576;2022-07-10T06:36:50;5.15;;;1.20;;
23228;SDS011;11783;50.350;6.576;2022-07-10T06:39:15;6.60;;;0.93;;
23228;SDS011;11783;50.350;6.576;2022-07-10T06:41:40;5.28;;;1.17;;
23228;SDS011;11783;50.350;6.576;2022-07-10T06:44:06;4.47;;;1.10;;
23228;SDS011;11783;50.350;6.576;2022-07-10T06:46:31;7.07;;;1.20;;
23228;SDS011;11783;50.350;6.576;2022-07-10T06:48:57;6.75;;;1.42;;
23228;SDS011;11783;50.350;6.576;2022-07-10T06:51:23;7.20;;;1.10;;
23228;SDS011;11783;50.350;6.576;2022-07-10T06:53:49;6.03;;;1.10;;
23228;SDS011;11783;50.350;6.576;2022-07-10T06:56:14;5.93;;;1.33;;
23228;SDS011;11783;50.350;6.576;2022-07-10T06:58:41;6.22;;;1.40;;
23228;SDS011;11783;50.350;6.576;2022-07-10T07:01:06;6.97;;;1.30;;
23228;SDS011;11783;50.350;6.576;2022-07-10T07:03:31;4.68;;;0.90;;
23228;SDS011;11783;50.350;6.576;2022-07-10T07:05:57;3.15;;;0.98;;
23228;SDS011;11783;50.350;6.576;2022-07-10T07:08:22;4.40;;;1.15;;
23228;SDS011;11783;50.350;6.576;2022-07-10T07:10:47;4.05;;;0.90;;
23228;SDS011;11783;50.350;6.576;2022-07-10T07:13:12;6.15;;;1.70;;
23228;SDS011;11783;50.350;6.576;2022-07-10T07:15:38;6.55;;;0.93;;
23228;SDS011;11783;50.350;6.576;2022-07-10T07:18:07;3.88;;;0.93;;
23228;SDS011;11783;50.350;6.576;2022-07-10T07:20:33;5.00;;;1.20;;
23228;SDS011;11783;50.350;6.576;2022-07-10T07:23:21;6.38;;;1.10;;
23228;SDS011;11783;50.350;6.576;2022-07-10T07:25:47;4.45;;;0.88;;
23228;SDS011;11783;50.350;6.576;2022-07-10T07:28:13;4.15;;;0.90;;
23228;SDS011;11783;50.350;6.576;2022-07-10T07:30:43;5.50;;;1.23;;
23228;SDS011;11783;50.350;6.576;2022-07-10T07:33:09;4.15;;;1.08;;
23228;SDS011;11783;50.350;6.576;2022-07-10T07:35:35;4.35;;;1.05;;
23228;SDS011;11783;50.350;6.576;2022-07-10T07:38:01;8.88;;;1.17;;
23228;SDS011;11783;50.350;6.576;2022-07-10T07:40:27;6.20;;;1.30;;
23228;SDS011;11783;50.350;6.576;2022-07-10T07:42:54;5.00;;;1.30;;
23228;SDS011;11783;50.350;6.576;2022-07-10T07:45:20;3.30;;;1.02;;
23228;SDS011;11783;50.350;6.576;2022-07-10T07:47:53;8.45;;;1.58;;
23228;SDS011;11783;50.350;6.576;2022-07-10T07:50:21;5.63;;;1.25;;
23228;SDS011;11783;50.350;6.576;2022-07-10T07:52:48;4.95;;;1.10;;
23228;SDS011;11783;50.350;6.576;2022-07-10T07:55:15;5.32;;;1.10;;
23228;SDS011;11783;50.350;6.576;2022-07-10T07:57:42;7.13;;;1.40;;
23228;SDS011;11783;50.350;6.576;2022-07-10T08:00:08;7.10;;;1.40;;
23228;SDS011;11783;50.350;6.576;2022-07-10T08:02:35;5.28;;;1.35;;
23228;SDS011;11783;50.350;6.576;2022-07-10T08:05:01;4.45;;;1.55;;
23228;SDS011;11783;50.350;6.576;2022-07-10T08:07:33;3.92;;;1.10;;
23228;SDS011;11783;50.350;6.576;2022-07-10T08:10:03;8.35;;;1.25;;
23228;SDS011;11783;50.350;6.576;2022-07-10T08:12:29;4.53;;;1.25;;
23228;SDS011;11783;50.350;6.576;2022-07-10T08:14:55;5.90;;;1.25;;
23228;SDS011;11783;50.350;6.576;2022-07-10T08:17:20;5.07;;;1.33;;
23228;SDS011;11783;50.350;6.576;2022-07-10T08:19:46;7.80;;;1.45;;
23228;SDS011;11783;50.350;6.576;2022-07-10T08:22:12;3.65;;;1.15;;
23228;SDS011;11783;50.350;6.576;2022-07-10T08:24:37;4.50;;;1.20;;
23228;SDS011;11783;50.350;6.576;2022-07-10T08:27:02;5.35;;;1.50;;
23228;SDS011;11783;50.350;6.576;2022-07-10T08:29:28;6.45;;;2.00;;
23228;SDS011;11783;50.350;6.576;2022-07-10T08:31:53;4.00;;;1.40;;
23228;SDS011;11783;50.350;6.576;2022-07-10T08:34:18;5.55;;;1.30;;
23228;SDS011;11783;50.350;6.576;2022-07-10T08:36:44;6.07;;;1.52;;
23228;SDS011;11783;50.350;6.576;2022-07-10T08:39:09;8.77;;;2.22;;
23228;SDS011;11783;50.350;6.576;2022-07-10T08:41:34;7.75;;;3.40;;
23228;SDS011;11783;50.350;6.576;2022-07-10T08:44:01;7.13;;;3.40;;
23228;SDS011;11783;50.350;6.576;2022-07-10T08:46:27;5.57;;;3.28;;
23228;SDS011;11783;50.350;6.576;2022-07-10T08:48:53;7.05;;;3.15;;
23228;SDS011;11783;50.350;6.576;2022-07-10T08:51:27;5.50;;;2.97;;
23228;SDS011;11783;50.350;6.576;2022-07-10T08:54:01;6.63;;;2.88;;
23228;SDS011;11783;50.350;6.576;2022-07-10T08:56:29;8.60;;;3.63;;
23228;SDS011;11783;50.350;6.576;2022-07-10T08:58:56;8.68;;;3.83;;
23228;SDS011;11783;50.350;6.576;2022-07-10T09:01:22;7.40;;;3.70;;
23228;SDS011;11783;50.350;6.576;2022-07-10T09:03:48;5.72;;;3.17;;
23228;SDS011;11783;50.350;6.576;2022-07-10T09:06:15;5.45;;;2.72;;
23228;SDS011;11783;50.350;6.576;2022-07-10T09:08:57;5.55;;;2.92;;
23228;SDS011;11783;50.350;6.576;2022-07-10T09:11:25;4.85;;;2.40;;
23228;SDS011;11783;50.350;6.576;2022-07-10T09:13:54;5.97;;;2.50;;
23228;SDS011;11783;50.350;6.576;2022-07-10T09:16:24;5.40;;;2.47;;
23228;SDS011;11783;50.350;6.576;2022-07-10T09:18:51;6.78;;;2.72;;
23228;SDS011;11783;50.350;6.576;2022-07-10T09:21:17;5.05;;;2.22;;
23228;SDS011;11783;50.350;6.576;2022-07-10T09:23:42;4.75;;;2.15;;
23228;SDS011;11783;50.350;6.576;2022-07-10T09:26:08;5.65;;;2.28;;
23228;SDS011;11783;50.350;6.576;2022-07-10T09:28:33;6.32;;;2.20;;
23228;SDS011;11783;50.350;6.576;2022-07-10T09:30:58;4.35;;;1.73;;
23228;SDS011;11783;50.350;6.576;2022-07-10T09:33:24;4.03;;;1.58;;
23228;SDS011;11783;50.350;6.576;2022-07-10T09:43:42;3.92;;;0.90;;
23228;SDS011;11783;50.350;6.576;2022-07-10T09:46:11;4.80;;;1.25;;
23228;SDS011;11783;50.350;6.576;2022-07-10T09:48:37;2.40;;;0.80;;
23228;SDS011;11783;50.350;6.576;2022-07-10T09:51:03;3.83;;;0.88;;
23228;SDS011;11783;50.350;6.576;2022-07-10T09:53:40;2.55;;;0.75;;
23228;SDS011;11783;50.350;6.576;2022-07-10T09:56:08;2.75;;;0.95;;
23228;SDS011;11783;50.350;6.576;2022-07-10T09:58:34;2.83;;;0.80;;
23228;SDS011;11783;50.350;6.576;2022-07-10T10:01:04;4.82;;;0.90;;
23228;SDS011;11783;50.350;6.576;2022-07-10T10:03:32;2.42;;;0.68;;
23228;SDS011;11783;50.350;6.576;2022-07-10T10:06:03;4.30;;;0.82;;
23228;SDS011;11783;50.350;6.576;2022-07-10T10:11:21;2.15;;;0.80;;
23228;SDS011;11783;50.350;6.576;2022-07-10T10:13:48;2.65;;;0.90;;
23228;SDS011;11783;50.350;6.576;2022-07-10T10:16:14;3.45;;;0.80;;
23228;SDS011;11783;50.350;6.576;2022-07-10T10:18:41;4.50;;;0.90;;
23228;SDS011;11783;50.350;6.576;2022-07-10T10:21:27;2.60;;;0.90;;
23228;SDS011;11783;50.350;6.576;2022-07-10T10:23:53;3.53;;;0.90;;
23228;SDS011;11783;50.350;6.576;2022-07-10T10:26:20;2.25;;;0.75;;
23228;SDS011;11783;50.350;6.576;2022-07-10T10:28:46;3.60;;;0.90;;
23228;SDS011;11783;50.350;6.576;2022-07-10T10:31:12;3.67;;;0.80;;
23228;SDS011;11783;50.350;6.576;2022-07-10T10:33:41;4.45;;;0.80;;
23228;SDS011;11783;50.350;6.576;2022-07-10T10:36:08;3.73;;;0.90;;
23228;SDS011;11783;50.350;6.576;2022-07-10T10:41:22;6.18;;;1.30;;
23228;SDS011;11783;50.350;6.576;2022-07-10T10:44:19;7.47;;;4.70;;
23228;SDS011;11783;50.350;6.576;2022-07-10T10:49:15;5.55;;;1.85;;
23228;SDS011;11783;50.350;6.576;2022-07-10T10:54:26;2.75;;;0.70;;
23228;SDS011;11783;50.350;6.576;2022-07-10T11:00:05;2.47;;;0.80;;
23228;SDS011;11783;50.350;6.576;2022-07-10T11:02:33;2.88;;;0.80;;
23228;SDS011;11783;50.350;6.576;2022-07-10T11:05:38;3.03;;;0.80;;
23228;SDS011;11783;50.350;6.576;2022-07-10T11:07:55;2.05;;;0.70;;
23228;SDS011;11783;50.350;6.576;2022-07-10T11:10:30;4.97;;;1.55;;
23228;SDS011;11783;50.350;6.576;2022-07-10T11:13:01;4.47;;;0.77;;
23228;SDS011;11783;50.350;6.576;2022-07-10T11:15:28;2.65;;;0.70;;
23228;SDS011;11783;50.350;6.576;2022-07-10T11:20:33;4.10;;;0.70;;
23228;SDS011;11783;50.350;6.576;2022-07-10T11:25:59;2.90;;;0.73;;
23228;SDS011;11783;50.350;6.576;2022-07-10T11:29:17;3.95;;;0.70;;
23228;SDS011;11783;50.350;6.576;2022-07-10T11:31:26;3.30;;;0.77;;
23228;SDS011;11783;50.350;6.576;2022-07-10T11:33:53;2.65;;;0.77;;
23228;SDS011;11783;50.350;6.576;2022-07-10T11:36:23;3.50;;;0.80;;
23228;SDS011;11783;50.350;6.576;2022-07-10T11:39:08;3.70;;;0.85;;
23228;SDS011;11783;50.350;6.576;2022-07-10T11:41:44;4.30;;;0.90;;
23228;SDS011;11783;50.350;6.576;2022-07-10T11:44:16;4.40;;;0.90;;
23228;SDS011;11783;50.350;6.576;2022-07-10T11:46:43;2.35;;;0.70;;
23228;SDS011;11783;50.350;6.576;2022-07-10T11:49:10;6.60;;;1.02;;
23228;SDS011;11783;50.350;6.576;2022-07-10T11:51:37;3.90;;;0.80;;
23228;SDS011;11783;50.350;6.576;2022-07-10T11:56:32;2.95;;;0.65;;
23228;SDS011;11783;50.350;6.576;2022-07-10T12:01:25;5.53;;;1.13;;
23228;SDS011;11783;50.350;6.576;2022-07-10T12:04:06;3.80;;;0.90;;
23228;SDS011;11783;50.350;6.576;2022-07-10T12:06:34;2.70;;;0.80;;
23228;SDS011;11783;50.350;6.576;2022-07-10T12:09:10;2.80;;;0.80;;
23228;SDS011;11783;50.350;6.576;2022-07-10T12:11:38;4.38;;;0.95;;
23228;SDS011;11783;50.350;6.576;2022-07-10T12:14:13;4.50;;;0.90;;
23228;SDS011;11783;50.350;6.576;2022-07-10T12:16:40;2.53;;;0.68;;
23228;SDS011;11783;50.350;6.576;2022-07-10T12:19:10;3.03;;;0.98;;
23228;SDS011;11783;50.350;6.576;2022-07-10T12:21:37;4.22;;;0.90;;
23228;SDS011;11783;50.350;6.576;2022-07-10T12:24:03;1.98;;;0.65;;
23228;SDS011;11783;50.350;6.576;2022-07-10T12:26:35;3.28;;;0.77;;
23228;SDS011;11783;50.350;6.576;2022-07-10T12:29:02;3.05;;;0.77;;
23228;SDS011;11783;50.350;6.576;2022-07-10T12:31:30;3.35;;;0.98;;
23228;SDS011;11783;50.350;6.576;2022-07-10T12:34:01;2.03;;;0.70;;
23228;SDS011;11783;50.350;6.576;2022-07-10T12:36:41;4.35;;;0.70;;
23228;SDS011;11783;50.350;6.576;2022-07-10T12:39:17;2.83;;;0.60;;
23228;SDS011;11783;50.350;6.576;2022-07-10T12:44:32;2.65;;;1.00;;
23228;SDS011;11783;50.350;6.576;2022-07-10T12:47:05;4.57;;;1.00;;
23228;SDS011;11783;50.350;6.576;2022-07-10T12:55:04;3.22;;;0.95;;
23228;SDS011;11783;50.350;6.576;2022-07-10T13:00:32;4.68;;;1.05;;
23228;SDS011;11783;50.350;6.576;2022-07-10T13:03:03;2.63;;;0.90;;
23228;SDS011;11783;50.350;6.576;2022-07-10T13:05:30;2.22;;;0.80;;
23228;SDS011;11783;50.350;6.576;2022-07-10T13:10:47;2.15;;;0.80;;
23228;SDS011;11783;50.350;6.576;2022-07-10T13:13:14;3.17;;;0.70;;
23228;SDS011;11783;50.350;6.576;2022-07-10T13:15:39;4.28;;;0.93;;
23228;SDS011;11783;50.350;6.576;2022-07-10T13:18:25;2.40;;;0.68;;
23228;SDS011;11783;50.350;6.576;2022-07-10T13:20:53;2.90;;;0.63;;
23228;SDS011;11783;50.350;6.576;2022-07-10T13:23:20;1.40;;;0.50;;
23228;SDS011;11783;50.350;6.576;2022-07-10T13:25:50;3.42;;;0.90;;
23228;SDS011;11783;50.350;6.576;2022-07-10T13:28:18;2.08;;;0.70;;
23228;SDS011;11783;50.350;6.576;2022-07-10T13:30:44;2.85;;;0.70;;
23228;SDS011;11783;50.350;6.576;2022-07-10T13:33:09;2.72;;;0.80;;
23228;SDS011;11783;50.350;6.576;2022-07-10T13:35:35;3.15;;;0.70;;
23228;SDS011;11783;50.350;6.576;2022-07-10T13:38:01;3.25;;;0.60;;
23228;SDS011;11783;50.350;6.576;2022-07-10T13:40:28;4.32;;;0.70;;
23228;SDS011;11783;50.350;6.576;2022-07-10T13:42:55;4.07;;;0.85;;
23228;SDS011;11783;50.350;6.576;2022-07-10T13:45:21;2.42;;;0.70;;
23228;SDS011;11783;50.350;6.576;2022-07-10T13:47:48;3.35;;;0.93;;
23228;SDS011;11783;50.350;6.576;2022-07-10T13:50:14;2.80;;;0.82;;
23228;SDS011;11783;50.350;6.576;2022-07-10T13:52:39;1.85;;;0.60;;
23228;SDS011;11783;50.350;6.576;2022-07-10T13:55:04;2.67;;;0.70;;
23228;SDS011;11783;50.350;6.576;2022-07-10T13:57:31;3.38;;;0.88;;
23228;SDS011;11783;50.350;6.576;2022-07-10T13:59:57;3.55;;;0.60;;
23228;SDS011;11783;50.350;6.576;2022-07-10T14:02:22;3.45;;;0.80;;
23228;SDS011;11783;50.350;6.576;2022-07-10T14:04:48;3.97;;;1.05;;
23228;SDS011;11783;50.350;6.576;2022-07-10T14:07:13;3.63;;;0.90;;
23228;SDS011;11783;50.350;6.576;2022-07-10T14:09:38;3.97;;;0.90;;
23228;SDS011;11783;50.350;6.576;2022-07-10T14:12:04;2.90;;;0.90;;
23228;SDS011;11783;50.350;6.576;2022-07-10T14:14:30;3.47;;;0.90;;
23228;SDS011;11783;50.350;6.576;2022-07-10T14:16:55;2.10;;;0.82;;
23228;SDS011;11783;50.350;6.576;2022-07-10T14:19:20;3.22;;;0.90;;
23228;SDS011;11783;50.350;6.576;2022-07-10T14:21:46;5.72;;;0.93;;
23228;SDS011;11783;50.350;6.576;2022-07-10T14:24:11;2.53;;;0.82;;
23228;SDS011;11783;50.350;6.576;2022-07-10T14:26:36;3.25;;;0.80;;
23228;SDS011;11783;50.350;6.576;2022-07-10T14:29:04;3.90;;;1.00;;
23228;SDS011;11783;50.350;6.576;2022-07-10T14:31:30;3.03;;;0.90;;
23228;SDS011;11783;50.350;6.576;2022-07-10T14:33:56;2.60;;;0.70;;
23228;SDS011;11783;50.350;6.576;2022-07-10T14:36:22;3.10;;;1.10;;
23228;SDS011;11783;50.350;6.576;2022-07-10T14:38:51;3.92;;;1.08;;
23228;SDS011;11783;50.350;6.576;2022-07-10T14:41:19;3.80;;;1.00;;
23228;SDS011;11783;50.350;6.576;2022-07-10T14:43:45;3.38;;;1.10;;
23228;SDS011;11783;50.350;6.576;2022-07-10T14:46:10;2.72;;;0.90;;
23228;SDS011;11783;50.350;6.576;2022-07-10T14:48:36;4.55;;;1.02;;
23228;SDS011;11783;50.350;6.576;2022-07-10T14:51:01;3.58;;;0.93;;
23228;SDS011;11783;50.350;6.576;2022-07-10T14:53:27;3.13;;;1.15;;
23228;SDS011;11783;50.350;6.576;2022-07-10T14:55:59;4.82;;;1.40;;
23228;SDS011;11783;50.350;6.576;2022-07-10T14:58:25;4.93;;;1.20;;
23228;SDS011;11783;50.350;6.576;2022-07-10T15:00:50;4.25;;;1.30;;
23228;SDS011;11783;50.350;6.576;2022-07-10T15:03:16;3.13;;;1.05;;
23228;SDS011;11783;50.350;6.576;2022-07-10T15:05:41;2.85;;;1.10;;
23228;SDS011;11783;50.350;6.576;2022-07-10T15:08:07;3.53;;;1.15;;
23228;SDS011;11783;50.350;6.576;2022-07-10T15:10:33;3.45;;;0.93;;
23228;SDS011;11783;50.350;6.576;2022-07-10T15:12:58;4.18;;;1.20;;
23228;SDS011;11783;50.350;6.576;2022-07-10T15:15:30;3.28;;;1.10;;
23228;SDS011;11783;50.350;6.576;2022-07-10T15:17:58;5.28;;;1.13;;
23228;SDS011;11783;50.350;6.576;2022-07-10T15:20:24;3.13;;;1.02;;
23228;SDS011;11783;50.350;6.576;2022-07-10T15:22:49;4.63;;;1.40;;
23228;SDS011;11783;50.350;6.576;2022-07-10T15:25:14;3.08;;;1.20;;
23228;SDS011;11783;50.350;6.576;2022-07-10T15:27:39;4.35;;;1.52;;
23228;SDS011;11783;50.350;6.576;2022-07-10T15:30:07;3.38;;;1.10;;
23228;SDS011;11783;50.350;6.576;2022-07-10T15:32:33;4.72;;;1.45;;
23228;SDS011;11783;50.350;6.576;2022-07-10T15:34:59;2.50;;;1.05;;